Time;durP1;ratioP1;P1;durP2;ratioP2;P2;SDS_P1;SDS_P2;PMS_P1;PMS_P2;Temp;Humidity;BMP_temperature;BMP_pressure;BME280_temperature;BME280_humidity;BME280_pressure;Samples;Min_cycle;Max_cycle;Signal;HPM_P1;HPM_P2
2023/03/13 00:02:18;;;;;;;;;;;7.70;99.90;;;;;;5044344;28;20247;-69
2023/03/13 00:04:44;;;;;;;;;;;7.70;99.90;;;;;;5044402;28;19921;-71
2023/03/13 00:07:12;;;;;;;;;;;7.70;99.90;;;;;;5043801;28;19980;-69
2023/03/13 00:09:39;;;;;;;;;;;7.70;99.90;;;;;;5044398;28;19921;-69
2023/03/13 00:12:07;;;;;;;;;;;7.70;99.90;;;;;;5043484;28;19927;-69
2023/03/13 00:14:34;;;;;;;;;;;7.70;99.90;;;;;;5044318;28;19944;-69
2023/03/13 00:17:01;;;;;;;;;;;7.70;99.90;;;;;;5043309;28;19940;-69
2023/03/13 00:19:28;;;;;;;;;;;7.70;99.90;;;;;;5044306;28;19921;-69
2023/03/13 00:21:55;;;;;;;;;;;7.70;99.90;;;;;;5043804;28;19960;-69
2023/03/13 00:24:21;;;;;;;;;;;7.70;99.90;;;;;;5044041;28;19921;-69
2023/03/13 00:26:48;;;;;;;;;;;7.70;99.90;;;;;;5043135;28;19951;-69
2023/03/13 00:29:18;;;;;;;;;;;7.80;99.90;;;;;;5043357;28;20322;-69
2023/03/13 00:31:46;;;;;;;;;;;7.80;99.90;;;;;;5042777;28;20041;-70
2023/03/13 00:34:13;;;;;;;;;;;7.80;99.90;;;;;;5025661;28;19957;-69
2023/03/13 00:36:40;;;;;;;;;;;7.80;99.90;;;;;;5047069;22;19927;-91
2023/03/13 00:39:06;;;;;;;;;;;7.80;99.90;;;;;;5094470;28;19947;-90
2023/03/13 00:41:33;;;;;;;;;;;7.70;99.90;;;;;;5094983;28;20118;-91
2023/03/13 00:44:00;;;;;;;;;;;7.80;99.90;;;;;;5104507;28;19927;-91
2023/03/13 00:46:29;;;;;;;;;;;7.80;99.90;;;;;;5104104;28;19921;-89
2023/03/13 00:48:56;;;;;;;;;;;7.80;99.90;;;;;;5104333;28;19988;-89
2023/03/13 00:51:25;;;;;;;;;;;7.90;99.90;;;;;;5104690;28;19920;-89
2023/03/13 00:53:52;;;;;;;;;;;7.80;99.90;;;;;;5104152;28;19920;-89
2023/03/13 00:56:19;;;;;;;;;;;7.80;99.90;;;;;;5103660;28;19988;-89
2023/03/13 00:58:47;;;;;;;;;;;7.80;99.90;;;;;;5104633;28;20254;-90
2023/03/13 01:01:15;;;;;;;;;;;7.80;99.90;;;;;;5104294;28;19920;-89
2023/03/13 01:03:44;;;;;;;;;;;7.80;99.90;;;;;;5105462;28;19939;-89
2023/03/13 01:06:12;;;;;;;;;;;7.80;99.90;;;;;;5104680;28;19927;-89
2023/03/13 01:08:39;;;;;;;;;;;7.80;99.90;;;;;;5105076;28;19920;-89
2023/03/13 01:11:06;;;;;;;;;;;7.80;99.90;;;;;;5104422;28;19947;-90
2023/03/13 01:13:33;;;;;;;;;;;7.80;99.90;;;;;;5104310;28;19959;-89
2023/03/13 01:16:02;;;;;;;;;;;7.80;99.90;;;;;;5103978;28;19943;-89
2023/03/13 01:18:29;;;;;;;;;;;7.80;99.90;;;;;;5103804;28;19940;-90
2023/03/13 01:20:57;;;;;;;;;;;7.80;99.90;;;;;;5104009;28;19928;-89
2023/03/13 01:23:23;;;;;;;;;;;7.80;99.90;;;;;;5103654;28;19920;-89
2023/03/13 01:25:50;;;;;;;;;;;7.80;99.90;;;;;;5103082;28;19920;-88
2023/03/13 01:28:17;;;;;;;;;;;7.80;99.90;;;;;;5104120;28;20131;-89
2023/03/13 01:30:44;;;;;;;;;;;7.80;99.90;;;;;;5102461;28;19920;-89
2023/03/13 01:33:10;;;;;;;;;;;7.80;99.90;;;;;;5103805;28;20287;-89
2023/03/13 01:35:37;;;;;;;;;;;7.80;99.90;;;;;;5103619;28;19920;-88
2023/03/13 01:38:05;;;;;;;;;;;7.80;99.90;;;;;;5103586;28;19920;-89
2023/03/13 01:40:38;;;;;;;;;;;7.80;99.90;;;;;;5103534;28;19920;-89
2023/03/13 01:43:13;;;;;;;;;;;7.90;99.90;;;;;;5103271;28;19927;-89
2023/03/13 01:45:58;;;;;;;;;;;8.00;99.90;;;;;;5103611;28;20219;-89
2023/03/13 01:48:26;;;;;;;;;;;8.00;99.90;;;;;;5103588;28;20202;-91
2023/03/13 01:50:53;;;;;;;;;;;8.10;99.90;;;;;;5103425;28;19920;-91
2023/03/13 01:53:21;;;;;;;;;;;8.10;99.90;;;;;;5103615;28;20151;-91
2023/03/13 01:55:48;;;;;;;;;;;8.10;99.90;;;;;;5103241;28;19935;-91
2023/03/13 01:58:15;;;;;;;;;;;8.10;99.90;;;;;;5103594;28;19958;-91
2023/03/13 02:00:43;;;;;;;;;;;8.10;99.90;;;;;;5096732;28;19921;-91
2023/03/13 02:03:12;;;;;;;;;;;8.10;99.90;;;;;;5083188;28;20263;-90
2023/03/13 02:05:41;;;;;;;;;;;8.10;99.90;;;;;;5083200;28;20170;-92
2023/03/13 02:08:11;;;;;;;;;;;8.10;99.90;;;;;;5096270;28;19987;-91
2023/03/13 02:10:42;;;;;;;;;;;8.10;99.90;;;;;;5103346;28;19947;-89
2023/03/13 02:13:12;;;;;;;;;;;8.10;99.90;;;;;;5106113;28;19959;-89
2023/03/13 02:15:40;;;;;;;;;;;8.20;99.90;;;;;;5106791;28;19943;-88
2023/03/13 02:18:07;;;;;;;;;;;8.20;99.90;;;;;;5106332;28;19962;-90
2023/03/13 02:20:34;;;;;;;;;;;8.10;99.90;;;;;;5106459;28;19947;-89
2023/03/13 02:23:03;;;;;;;;;;;8.10;99.90;;;;;;5106871;28;20145;-89
2023/03/13 02:25:35;;;;;;;;;;;8.20;99.90;;;;;;5106379;28;19924;-89
2023/03/13 02:28:05;;;;;;;;;;;8.10;99.90;;;;;;5106618;28;20124;-90
2023/03/13 02:30:32;;;;;;;;;;;8.10;99.90;;;;;;5086971;28;20231;-89
2023/03/13 02:32:59;;;;;;;;;;;8.10;99.90;;;;;;5095287;28;19951;-89
2023/03/13 02:35:26;;;;;;;;;;;8.00;99.90;;;;;;5106652;28;20227;-89
2023/03/13 02:37:54;;;;;;;;;;;8.00;99.90;;;;;;5106035;28;20258;-89
2023/03/13 02:40:22;;;;;;;;;;;8.00;99.90;;;;;;5106375;28;19944;-89
2023/03/13 02:42:50;;;;;;;;;;;8.00;99.90;;;;;;5106452;28;19927;-89
2023/03/13 02:45:17;;;;;;;;;;;7.90;99.90;;;;;;5106020;28;19920;-89
2023/03/13 02:47:44;;;;;;;;;;;7.90;99.90;;;;;;5105638;28;20234;-90
2023/03/13 02:50:12;;;;;;;;;;;7.90;99.90;;;;;;5107166;28;20169;-89
2023/03/13 02:52:41;;;;;;;;;;;7.90;99.90;;;;;;5106211;28;20119;-89
2023/03/13 02:55:10;;;;;;;;;;;7.80;99.90;;;;;;5106197;28;19950;-89
2023/03/13 02:57:37;;;;;;;;;;;7.80;99.90;;;;;;5105994;28;19987;-89
2023/03/13 03:00:11;;;;;;;;;;;7.80;99.90;;;;;;5092424;28;19942;-89
2023/03/13 03:02:37;;;;;;;;;;;7.80;99.90;;;;;;5085839;28;19921;-89
2023/03/13 03:05:04;;;;;;;;;;;7.70;99.90;;;;;;5085256;28;19949;-89
2023/03/13 03:07:31;;;;;;;;;;;7.70;99.90;;;;;;5086689;28;19956;-90
2023/03/13 03:09:58;;;;;;;;;;;7.70;99.90;;;;;;5097954;28;19983;-89
2023/03/13 03:12:24;;;;;;;;;;;7.60;99.90;;;;;;5108668;22;20195;-69
2023/03/13 03:14:51;;;;;;;;;;;7.70;99.90;;;;;;5085273;28;19921;-69
2023/03/13 03:17:19;;;;;;;;;;;7.70;99.90;;;;;;5085258;28;19920;-69
2023/03/13 03:19:46;;;;;;;;;;;7.60;99.90;;;;;;5085243;28;20226;-70
2023/03/13 03:22:12;;;;;;;;;;;7.50;99.90;;;;;;5085336;28;20110;-69
2023/03/13 03:24:39;;;;;;;;;;;7.50;99.90;;;;;;5084179;28;19963;-68
2023/03/13 03:27:05;;;;;;;;;;;7.50;99.90;;;;;;5084923;28;19983;-70
2023/03/13 03:29:32;;;;;;;;;;;7.50;99.90;;;;;;5085190;28;19927;-69
2023/03/13 03:31:59;;;;;;;;;;;7.50;99.90;;;;;;5085154;28;19983;-69
2023/03/13 03:34:27;;;;;;;;;;;7.50;99.90;;;;;;5085145;28;20118;-69
2023/03/13 03:37:00;;;;;;;;;;;7.50;99.90;;;;;;5081649;28;20002;-69
2023/03/13 03:39:27;;;;;;;;;;;7.40;99.90;;;;;;5085141;28;19920;-69
2023/03/13 03:41:53;;;;;;;;;;;7.40;99.90;;;;;;5084702;28;20230;-68
2023/03/13 03:44:20;;;;;;;;;;;7.40;99.90;;;;;;5085048;28;19920;-69
2023/03/13 03:46:47;;;;;;;;;;;7.50;99.90;;;;;;5084482;28;19924;-69
2023/03/13 03:49:13;;;;;;;;;;;7.50;99.90;;;;;;5085058;28;20042;-69
2023/03/13 03:51:41;;;;;;;;;;;7.50;99.90;;;;;;5084862;28;20156;-69
2023/03/13 03:54:08;;;;;;;;;;;7.50;99.90;;;;;;5084443;28;19920;-69
2023/03/13 03:56:34;;;;;;;;;;;7.50;99.90;;;;;;5083741;28;19963;-69
2023/03/13 03:59:01;;;;;;;;;;;7.50;99.90;;;;;;5084707;28;20132;-69
2023/03/13 04:01:28;;;;;;;;;;;7.50;99.90;;;;;;5084743;28;19963;-69
2023/03/13 04:03:54;;;;;;;;;;;7.50;99.90;;;;;;5084675;28;19995;-69
2023/03/13 04:06:21;;;;;;;;;;;7.50;99.90;;;;;;5083532;28;20251;-69
2023/03/13 04:08:49;;;;;;;;;;;7.50;99.90;;;;;;5084512;28;19983;-69
2023/03/13 04:11:15;;;;;;;;;;;7.50;99.90;;;;;;5084519;28;19927;-69
2023/03/13 04:13:42;;;;;;;;;;;7.60;99.90;;;;;;5084270;28;19956;-69
2023/03/13 04:16:09;;;;;;;;;;;7.60;99.90;;;;;;5083542;28;19921;-69
2023/03/13 04:18:36;;;;;;;;;;;7.60;99.90;;;;;;5084304;28;19959;-69
2023/03/13 04:21:03;;;;;;;;;;;7.70;99.90;;;;;;5084363;28;19927;-69
2023/03/13 04:23:29;;;;;;;;;;;7.70;99.90;;;;;;5084081;28;20278;-70
2023/03/13 04:25:57;;;;;;;;;;;7.70;99.90;;;;;;5083952;28;19928;-69
2023/03/13 04:28:24;;;;;;;;;;;7.70;99.90;;;;;;5083936;28;20115;-69
2023/03/13 04:30:51;;;;;;;;;;;7.60;99.90;;;;;;5084154;28;20175;-69
2023/03/13 04:33:18;;;;;;;;;;;7.60;99.90;;;;;;5084267;28;19920;-69
2023/03/13 04:35:45;;;;;;;;;;;7.60;99.90;;;;;;5083373;28;19988;-71
2023/03/13 04:38:11;;;;;;;;;;;7.60;99.90;;;;;;5081132;28;19956;-69
2023/03/13 04:40:38;;;;;;;;;;;7.50;99.90;;;;;;5084054;28;19920;-69
2023/03/13 04:43:06;;;;;;;;;;;7.50;99.90;;;;;;5084119;28;19983;-69
2023/03/13 04:45:32;;;;;;;;;;;7.50;99.90;;;;;;5083658;28;20272;-69
2023/03/13 04:47:59;;;;;;;;;;;7.50;99.90;;;;;;5082990;28;19992;-69
2023/03/13 04:50:26;;;;;;;;;;;7.50;99.90;;;;;;5084006;28;19988;-69
2023/03/13 04:52:52;;;;;;;;;;;7.50;99.90;;;;;;5083712;28;19920;-70
2023/03/13 04:55:19;;;;;;;;;;;7.50;99.90;;;;;;5083904;28;19920;-69
2023/03/13 04:57:45;;;;;;;;;;;7.50;99.90;;;;;;5083156;28;19920;-69
2023/03/13 05:00:14;;;;;;;;;;;7.50;99.90;;;;;;5083806;28;19920;-69
2023/03/13 05:02:41;;;;;;;;;;;7.50;99.90;;;;;;5083712;28;19952;-69
2023/03/13 05:05:07;;;;;;;;;;;7.50;99.90;;;;;;5083460;28;19920;-68
2023/03/13 05:07:34;;;;;;;;;;;7.60;99.90;;;;;;5082666;28;19920;-69
2023/03/13 05:10:01;;;;;;;;;;;7.60;99.90;;;;;;5083794;28;19987;-69
2023/03/13 05:12:27;;;;;;;;;;;7.60;99.90;;;;;;5083535;28;19952;-69
2023/03/13 05:14:54;;;;;;;;;;;7.60;99.90;;;;;;5083500;28;19991;-69
2023/03/13 05:17:22;;;;;;;;;;;7.60;99.90;;;;;;5082679;28;19942;-69
2023/03/13 05:19:48;;;;;;;;;;;7.50;99.90;;;;;;5065151;28;19921;-69
2023/03/13 05:22:15;;;;;;;;;;;7.60;99.90;;;;;;5062743;28;19984;-70
2023/03/13 05:24:42;;;;;;;;;;;7.50;99.90;;;;;;5082727;28;19942;-69
2023/03/13 05:27:08;;;;;;;;;;;7.50;99.90;;;;;;5082357;28;19927;-69
2023/03/13 05:29:35;;;;;;;;;;;7.50;99.90;;;;;;5081501;28;19952;-70
2023/03/13 05:32:02;;;;;;;;;;;7.50;99.90;;;;;;5082948;28;19926;-69
2023/03/13 05:34:30;;;;;;;;;;;7.50;99.90;;;;;;5083292;28;20133;-69
2023/03/13 05:36:56;;;;;;;;;;;7.50;99.90;;;;;;5083078;28;19920;-69
2023/03/13 05:39:23;;;;;;;;;;;7.40;99.90;;;;;;5083005;28;19979;-69
2023/03/13 05:41:49;;;;;;;;;;;7.40;99.90;;;;;;5083317;28;19983;-69
2023/03/13 05:44:16;;;;;;;;;;;7.40;99.90;;;;;;5082993;28;19984;-69
2023/03/13 05:46:43;;;;;;;;;;;7.40;99.90;;;;;;5082387;28;19921;-69
2023/03/13 05:49:09;;;;;;;;;;;7.40;99.90;;;;;;5086886;28;19988;-71
2023/03/13 05:51:37;;;;;;;;;;;7.40;99.90;;;;;;5086460;28;19988;-70
2023/03/13 05:54:04;;;;;;;;;;;7.40;99.90;;;;;;5086984;28;19931;-69
2023/03/13 05:56:31;;;;;;;;;;;7.40;99.90;;;;;;5085753;28;19991;-70
2023/03/13 05:58:57;;;;;;;;;;;7.40;99.90;;;;;;5086972;28;19956;-69
2023/03/13 06:01:24;;;;;;;;;;;7.40;99.90;;;;;;5086872;28;19975;-69
2023/03/13 06:03:51;;;;;;;;;;;7.40;99.90;;;;;;5085641;28;20001;-69
2023/03/13 06:06:18;;;;;;;;;;;7.40;99.90;;;;;;5086227;28;19920;-69
2023/03/13 06:08:46;;;;;;;;;;;7.40;99.90;;;;;;5086304;28;19920;-70
2023/03/13 06:11:13;;;;;;;;;;;7.40;99.90;;;;;;5086435;28;19920;-69
2023/03/13 06:13:39;;;;;;;;;;;7.40;99.90;;;;;;5086593;28;19920;-69
2023/03/13 06:16:06;;;;;;;;;;;7.50;99.90;;;;;;5086146;28;20390;-69
2023/03/13 06:18:33;;;;;;;;;;;7.50;99.90;;;;;;5085891;28;19934;-69
2023/03/13 06:21:01;;;;;;;;;;;7.50;99.90;;;;;;5086458;28;19984;-69
2023/03/13 06:23:28;;;;;;;;;;;7.50;99.90;;;;;;5085920;28;20009;-69
2023/03/13 06:25:55;;;;;;;;;;;7.60;99.90;;;;;;5085964;28;19920;-71
2023/03/13 06:28:22;;;;;;;;;;;7.60;99.90;;;;;;5086035;28;19987;-68
2023/03/13 06:30:49;;;;;;;;;;;7.60;99.90;;;;;;5085770;28;19927;-67
2023/03/13 06:33:15;;;;;;;;;;;7.70;99.90;;;;;;5084983;28;19990;-67
2023/03/13 06:35:49;;;;;;;;;;;7.70;99.90;;;;;;5084810;28;19984;-68
2023/03/13 06:38:15;;;;;;;;;;;7.80;99.90;;;;;;5085889;28;19983;-69
2023/03/13 06:40:42;;;;;;;;;;;7.90;99.90;;;;;;5086297;28;20132;-68
2023/03/13 06:43:10;;;;;;;;;;;7.90;99.90;;;;;;5072404;28;19980;-70
2023/03/13 06:45:37;;;;;;;;;;;7.90;99.90;;;;;;5065406;28;20112;-70
2023/03/13 06:48:03;;;;;;;;;;;8.00;99.90;;;;;;5065823;28;19963;-69
2023/03/13 06:50:30;;;;;;;;;;;8.00;99.90;;;;;;5079765;28;19920;-69
2023/03/13 06:52:57;;;;;;;;;;;7.90;99.90;;;;;;5085049;28;19920;-69
2023/03/13 06:55:24;;;;;;;;;;;8.00;99.90;;;;;;5065689;28;19967;-69
2023/03/13 06:57:50;;;;;;;;;;;8.00;99.90;;;;;;5064688;28;20220;-68
2023/03/13 07:00:19;;;;;;;;;;;8.00;99.90;;;;;;5064563;28;20151;-69
2023/03/13 07:02:46;;;;;;;;;;;8.10;99.90;;;;;;5065492;28;19927;-69
2023/03/13 07:05:13;;;;;;;;;;;8.10;99.90;;;;;;5065607;28;19988;-68
2023/03/13 07:07:40;;;;;;;;;;;8.20;99.90;;;;;;5064869;28;19920;-69
2023/03/13 07:10:07;;;;;;;;;;;8.20;99.90;;;;;;5065523;28;19921;-70
2023/03/13 07:12:34;;;;;;;;;;;8.30;99.90;;;;;;5065261;28;19921;-69
2023/03/13 07:15:01;;;;;;;;;;;8.40;99.90;;;;;;5065484;28;19927;-68
2023/03/13 07:17:29;;;;;;;;;;;8.40;99.90;;;;;;5064720;28;20232;-69
2023/03/13 07:19:55;;;;;;;;;;;8.40;99.90;;;;;;5064947;28;19921;-69
2023/03/13 07:22:22;;;;;;;;;;;8.50;99.90;;;;;;5065226;28;19963;-69
2023/03/13 07:24:48;;;;;;;;;;;8.60;99.90;;;;;;5064758;28;20389;-69
2023/03/13 07:27:19;;;;;;;;;;;8.60;99.90;;;;;;5064247;28;19956;-69
2023/03/13 07:29:46;;;;;;;;;;;8.70;99.90;;;;;;5078271;28;19924;-69
2023/03/13 07:32:12;;;;;;;;;;;8.80;99.90;;;;;;5084861;28;20244;-69
2023/03/13 07:34:43;;;;;;;;;;;8.80;99.90;;;;;;5085096;28;19983;-69
2023/03/13 07:37:10;;;;;;;;;;;8.80;99.90;;;;;;5084121;28;19920;-70
2023/03/13 07:39:36;;;;;;;;;;;8.90;99.90;;;;;;5084933;28;19956;-69
2023/03/13 07:42:03;;;;;;;;;;;8.90;99.90;;;;;;5084856;28;19952;-69
2023/03/13 07:44:30;;;;;;;;;;;9.00;99.90;;;;;;5084298;28;19921;-68
2023/03/13 07:46:59;;;;;;;;;;;9.00;99.90;;;;;;5083385;28;19986;-69
2023/03/13 07:49:25;;;;;;;;;;;9.10;99.90;;;;;;5084780;28;19921;-69
2023/03/13 07:51:53;;;;;;;;;;;9.20;99.90;;;;;;5084676;28;19999;-69
2023/03/13 07:54:20;;;;;;;;;;;9.30;99.90;;;;;;5084692;28;19920;-70
2023/03/13 07:56:47;;;;;;;;;;;9.40;99.90;;;;;;5083641;28;19991;-69
2023/03/13 07:59:14;;;;;;;;;;;9.50;99.90;;;;;;5084298;28;19927;-69
2023/03/13 08:01:40;;;;;;;;;;;9.70;99.90;;;;;;5084499;28;20162;-69
2023/03/13 08:04:09;;;;;;;;;;;9.90;99.90;;;;;;5084099;28;20006;-69
2023/03/13 08:06:36;;;;;;;;;;;10.10;99.90;;;;;;5083593;28;19928;-69
2023/03/13 08:09:04;;;;;;;;;;;10.20;99.90;;;;;;5084561;28;19960;-69
2023/03/13 08:11:31;;;;;;;;;;;10.30;99.90;;;;;;5083884;28;19992;-69
2023/03/13 08:13:57;;;;;;;;;;;10.40;99.90;;;;;;5084260;28;19921;-69
2023/03/13 08:16:25;;;;;;;;;;;10.50;99.90;;;;;;5083481;28;19991;-68
2023/03/13 08:18:52;;;;;;;;;;;10.60;99.90;;;;;;5083955;28;19920;-68
2023/03/13 08:21:20;;;;;;;;;;;10.60;99.90;;;;;;5083860;28;19988;-69
2023/03/13 08:23:47;;;;;;;;;;;10.70;99.90;;;;;;5084045;28;19926;-69
2023/03/13 08:26:16;;;;;;;;;;;10.60;99.90;;;;;;5083906;28;20003;-70
2023/03/13 08:28:43;;;;;;;;;;;10.70;99.90;;;;;;5084115;28;19920;-69
2023/03/13 08:31:11;;;;;;;;;;;10.70;99.90;;;;;;5083703;28;19920;-69
2023/03/13 08:33:37;;;;;;;;;;;10.80;99.90;;;;;;5083716;28;20227;-69
2023/03/13 08:36:11;;;;;;;;;;;10.80;99.90;;;;;;5083203;28;19927;-69
2023/03/13 08:38:38;;;;;;;;;;;10.90;99.90;;;;;;5083822;28;19920;-69
2023/03/13 08:41:05;;;;;;;;;;;10.90;99.90;;;;;;5083636;28;19966;-69
2023/03/13 08:43:34;;;;;;;;;;;10.90;99.90;;;;;;5081220;28;19990;-70
2023/03/13 08:46:00;;;;;;;;;;;11.00;99.90;;;;;;5083396;28;19925;-68
2023/03/13 08:48:27;;;;;;;;;;;11.00;99.90;;;;;;5083537;28;19983;-69
2023/03/13 08:51:04;;;;;;;;;;;11.00;99.90;;;;;;5083838;28;19926;-68
2023/03/13 08:53:31;;;;;;;;;;;11.10;99.90;;;;;;5083761;28;19983;-69
2023/03/13 08:55:57;;;;;;;;;;;11.10;99.90;;;;;;5083170;28;20015;-70
2023/03/13 08:58:24;;;;;;;;;;;11.20;99.90;;;;;;5083381;28;19956;-69
2023/03/13 09:00:52;;;;;;;;;;;11.20;99.90;;;;;;5083653;28;19920;-69
2023/03/13 09:03:19;;;;;;;;;;;11.20;99.90;;;;;;5083708;28;19920;-69
2023/03/13 09:05:46;;;;;;;;;;;11.30;99.90;;;;;;5082899;28;19926;-70
2023/03/13 09:08:13;;;;;;;;;;;11.40;99.90;;;;;;5083295;28;19966;-69
2023/03/13 09:10:40;;;;;;;;;;;11.40;99.90;;;;;;5083615;28;19962;-69
2023/03/13 09:13:06;;;;;;;;;;;11.50;99.90;;;;;;5083264;28;19959;-69
2023/03/13 09:15:33;;;;;;;;;;;11.60;99.90;;;;;;5083403;28;19984;-69
2023/03/13 09:18:01;;;;;;;;;;;11.60;99.90;;;;;;5082933;28;19920;-69
2023/03/13 09:20:28;;;;;;;;;;;11.70;99.90;;;;;;5083277;28;20373;-69
2023/03/13 09:22:54;;;;;;;;;;;11.70;99.90;;;;;;5085445;28;19983;-70
2023/03/13 09:25:21;;;;;;;;;;;11.80;99.90;;;;;;5087486;28;20000;-69
2023/03/13 09:27:47;;;;;;;;;;;11.90;99.90;;;;;;5086516;28;19983;-69
2023/03/13 09:30:14;;;;;;;;;;;12.00;99.90;;;;;;5087491;28;19987;-69
2023/03/13 09:32:41;;;;;;;;;;;12.00;99.90;;;;;;5087291;28;19927;-68
2023/03/13 09:35:09;;;;;;;;;;;12.10;99.90;;;;;;5086908;28;19988;-69
2023/03/13 09:37:35;;;;;;;;;;;12.20;99.90;;;;;;5086284;28;20220;-69
2023/03/13 09:40:03;;;;;;;;;;;12.30;99.90;;;;;;5087336;28;19988;-69
2023/03/13 09:42:35;;;;;;;;;;;12.30;99.90;;;;;;5087324;28;19942;-69
2023/03/13 09:45:06;;;;;;;;;;;12.40;99.90;;;;;;5086630;28;19920;-70
2023/03/13 09:47:38;;;;;;;;;;;12.50;99.90;;;;;;5086399;28;19983;-69
2023/03/13 09:50:10;;;;;;;;;;;12.60;99.90;;;;;;5087102;28;19988;-69
2023/03/13 09:52:40;;;;;;;;;;;12.60;99.90;;;;;;5086916;28;19975;-69
2023/03/13 09:55:14;;;;;;;;;;;12.70;99.90;;;;;;5086773;28;19924;-69
2023/03/13 09:57:44;;;;;;;;;;;12.70;99.90;;;;;;5086105;28;19927;-69
2023/03/13 10:00:13;;;;;;;;;;;12.80;99.90;;;;;;5086944;28;19920;-69
2023/03/13 10:02:44;;;;;;;;;;;12.80;99.90;;;;;;5086703;28;19928;-69
2023/03/13 10:05:13;;;;;;;;;;;12.90;99.90;;;;;;5086706;28;19943;-69
2023/03/13 10:07:41;;;;;;;;;;;12.90;99.90;;;;;;5086093;28;19942;-69
2023/03/13 10:10:13;;;;;;;;;;;13.00;99.90;;;;;;5066791;28;19920;-69
2023/03/13 10:12:43;;;;;;;;;;;13.10;99.90;;;;;;5055272;28;19921;-69
2023/03/13 10:15:32;;;;;;;;;;;13.10;99.90;;;;;;5066536;28;19980;-69
2023/03/13 10:18:01;;;;;;;;;;;13.10;99.90;;;;;;5065746;28;19927;-68
2023/03/13 10:20:29;;;;;;;;;;;13.10;99.90;;;;;;5066149;28;20208;-69
2023/03/13 10:22:59;;;;;;;;;;;13.10;99.90;;;;;;5066427;28;19963;-70
2023/03/13 10:25:28;;;;;;;;;;;13.10;99.90;;;;;;5066241;28;19920;-69
2023/03/13 10:27:55;;;;;;;;;;;13.10;99.90;;;;;;5065881;28;20000;-69
2023/03/13 10:30:23;;;;;;;;;;;13.10;99.90;;;;;;5066055;28;19928;-69
2023/03/13 10:32:50;;;;;;;;;;;13.00;99.90;;;;;;5061950;28;19975;-69
2023/03/13 10:35:21;;;;;;;;;;;13.00;99.90;;;;;;5065908;28;19952;-69
2023/03/13 10:37:48;;;;;;;;;;;13.00;99.90;;;;;;5045401;28;19980;-72
2023/03/13 10:40:22;;;;;;;;;;;13.00;99.90;;;;;;5046766;28;19956;-71
2023/03/13 10:42:50;;;;;;;;;;;13.00;99.90;;;;;;5053792;28;19928;-69
2023/03/13 10:45:18;;;;;;;;;;;12.90;99.90;;;;;;5045760;28;19922;-69
2023/03/13 10:47:45;;;;;;;;;;;12.90;99.90;;;;;;5045297;28;19921;-69
2023/03/13 10:50:18;;;;;;;;;;;12.90;99.90;;;;;;5061825;28;19980;-70
2023/03/13 10:52:46;;;;;;;;;;;12.90;99.90;;;;;;5047541;28;20161;-69
2023/03/13 10:55:16;;;;;;;;;;;12.90;99.90;;;;;;5045776;28;19928;-69
2023/03/13 10:57:52;;;;;;;;;;;12.90;99.90;;;;;;5045065;28;19921;-70
2023/03/13 11:00:37;;;;;;;;;;;13.00;99.90;;;;;;5045767;28;19997;-70
2023/03/13 11:03:06;;;;;;;;;;;13.10;99.90;;;;;;5045420;28;19921;-69
2023/03/13 11:05:36;;;;;;;;;;;13.20;99.90;;;;;;5048133;28;19956;-70
2023/03/13 11:08:20;;;;;;;;;;;13.30;99.90;;;;;;5065208;28;20163;-68
2023/03/13 11:10:54;;;;;;;;;;;13.50;99.90;;;;;;5061632;28;19924;-69
2023/03/13 11:13:33;;;;;;;;;;;13.70;99.90;;;;;;5059792;28;20208;-68
2023/03/13 11:16:02;;;;;;;;;;;14.00;99.90;;;;;;5065077;28;19921;-69
2023/03/13 11:18:32;;;;;;;;;;;14.30;99.90;;;;;;5065086;28;19927;-69
2023/03/13 11:20:59;;;;;;;;;;;14.40;99.90;;;;;;5059967;28;19921;-69
2023/03/13 11:23:28;;;;;;;;;;;14.50;99.90;;;;;;5045107;28;19989;-69
2023/03/13 11:26:01;;;;;;;;;;;14.60;99.90;;;;;;5044619;28;19996;-69
2023/03/13 11:28:40;;;;;;;;;;;14.60;99.90;;;;;;5060999;28;19927;-69
2023/03/13 11:31:09;;;;;;;;;;;14.60;99.90;;;;;;5065061;28;20119;-69
2023/03/13 11:33:39;;;;;;;;;;;14.50;99.90;;;;;;5064842;28;19921;-68
2023/03/13 11:36:10;;;;;;;;;;;14.50;99.90;;;;;;5064453;28;19925;-69
2023/03/13 11:38:38;;;;;;;;;;;14.50;99.90;;;;;;5064797;28;19963;-68
2023/03/13 11:41:11;;;;;;;;;;;14.50;99.90;;;;;;5053987;28;19943;-69
2023/03/13 11:43:49;;;;;;;;;;;14.60;99.90;;;;;;5059894;28;19980;-69
2023/03/13 11:46:21;;;;;;;;;;;14.60;99.90;;;;;;5050323;28;20216;-69
2023/03/13 11:48:56;;;;;;;;;;;14.60;99.90;;;;;;5064860;28;19985;-69
2023/03/13 11:51:27;;;;;;;;;;;14.60;99.90;;;;;;5054252;28;19984;-69
2023/03/13 11:54:07;;;;;;;;;;;14.50;99.90;;;;;;5044737;28;19989;-69
2023/03/13 11:56:37;;;;;;;;;;;14.50;99.90;;;;;;5044275;28;19927;-69
2023/03/13 11:59:16;;;;;;;;;;;14.50;99.90;;;;;;5045068;28;19921;-69
2023/03/13 12:01:46;;;;;;;;;;;14.50;99.90;;;;;;5064132;28;19997;-69
2023/03/13 12:04:17;;;;;;;;;;;14.50;99.90;;;;;;5064598;28;19920;-69
2023/03/13 12:06:46;;;;;;;;;;;14.70;99.90;;;;;;5063819;28;19929;-69
2023/03/13 12:09:15;;;;;;;;;;;14.90;99.90;;;;;;5064231;28;19920;-69
2023/03/13 12:11:43;;;;;;;;;;;15.30;99.90;;;;;;5063969;28;19920;-70
2023/03/13 12:14:13;;;;;;;;;;;15.50;99.90;;;;;;5064338;28;19921;-69
2023/03/13 12:16:41;;;;;;;;;;;15.70;99.90;;;;;;5063020;28;19927;-69
2023/03/13 12:19:10;;;;;;;;;;;15.80;99.90;;;;;;5052001;28;19928;-67
2023/03/13 12:21:40;;;;;;;;;;;15.70;99.90;;;;;;5043604;28;19921;-68
2023/03/13 12:24:12;;;;;;;;;;;15.70;99.90;;;;;;5063127;28;19925;-68
2023/03/13 12:26:41;;;;;;;;;;;15.70;99.90;;;;;;5061420;28;19921;-68
2023/03/13 12:29:13;;;;;;;;;;;16.00;99.90;;;;;;5062177;28;19921;-67
2023/03/13 12:31:42;;;;;;;;;;;16.30;99.90;;;;;;5062401;28;19927;-67
2023/03/13 12:34:14;;;;;;;;;;;16.60;99.90;;;;;;5062661;28;20023;-68
2023/03/13 12:36:44;;;;;;;;;;;16.70;99.90;;;;;;5063334;28;19987;-67
2023/03/13 12:39:17;;;;;;;;;;;16.60;99.90;;;;;;5063475;28;19987;-67
2023/03/13 12:41:47;;;;;;;;;;;16.70;99.90;;;;;;5063406;28;19921;-68
2023/03/13 12:44:16;;;;;;;;;;;16.80;99.90;;;;;;5053531;28;19988;-68
2023/03/13 12:46:46;;;;;;;;;;;16.80;99.90;;;;;;5057667;28;19988;-68
2023/03/13 12:49:32;;;;;;;;;;;17.00;99.90;;;;;;5063462;28;19927;-68
2023/03/13 12:52:06;;;;;;;;;;;17.00;99.90;;;;;;5063252;28;19920;-68
2023/03/13 12:54:50;;;;;;;;;;;17.00;99.90;;;;;;5062634;28;19921;-67
2023/03/13 12:57:38;;;;;;;;;;;16.90;99.90;;;;;;5061939;28;19984;-67
2023/03/13 13:00:12;;;;;;;;;;;16.90;99.90;;;;;;5037752;28;20159;-67
2023/03/13 13:02:41;;;;;;;;;;;16.90;99.90;;;;;;5062876;28;19921;-67
2023/03/13 13:05:17;;;;;;;;;;;16.70;99.90;;;;;;5062889;28;19991;-67
2023/03/13 13:07:52;;;;;;;;;;;16.70;99.90;;;;;;5060147;28;20228;-68
2023/03/13 13:10:21;;;;;;;;;;;16.60;99.90;;;;;;5062910;28;19920;-67
2023/03/13 13:13:08;;;;;;;;;;;16.60;99.90;;;;;;5062935;28;19921;-67
2023/03/13 13:15:34;;;;;;;;;;;16.70;99.90;;;;;;5061426;28;19921;-67
2023/03/13 13:18:16;;;;;;;;;;;16.80;99.90;;;;;;5042228;28;19987;-67
2023/03/13 13:20:44;;;;;;;;;;;16.80;99.90;;;;;;5043230;28;19921;-68
2023/03/13 13:23:40;;;;;;;;;;;16.90;99.90;;;;;;5043040;28;19975;-67
2023/03/13 13:26:28;;;;;;;;;;;17.00;99.90;;;;;;5043620;28;19996;-68
2023/03/13 13:28:55;;;;;;;;;;;17.20;99.90;;;;;;5043482;28;19928;-68
2023/03/13 13:31:42;;;;;;;;;;;17.20;99.90;;;;;;5045529;28;19929;-67
2023/03/13 13:34:30;;;;;;;;;;;17.20;99.90;;;;;;5049020;28;19936;-68
2023/03/13 13:36:58;;;;;;;;;;;17.20;99.90;;;;;;5061280;28;19995;-68
2023/03/13 13:39:37;;;;;;;;;;;17.30;99.90;;;;;;5061457;28;19927;-68
2023/03/13 13:42:18;;;;;;;;;;;17.30;99.90;;;;;;5062103;28;19927;-67
2023/03/13 13:44:57;;;;;;;;;;;17.20;99.90;;;;;;5052521;28;19988;-68
2023/03/13 13:47:25;;;;;;;;;;;17.20;99.90;;;;;;5042257;28;19921;-67
2023/03/13 13:49:59;;;;;;;;;;;17.10;99.90;;;;;;5040348;28;19984;-68
2023/03/13 13:52:37;;;;;;;;;;;17.00;99.90;;;;;;5057820;28;19927;-67
2023/03/13 13:55:28;;;;;;;;;;;17.00;99.90;;;;;;5062081;28;19921;-68
2023/03/13 13:57:59;;;;;;;;;;;17.00;99.90;;;;;;5048921;28;19988;-68
2023/03/13 14:00:26;;;;;;;;;;;17.00;99.90;;;;;;5061474;28;19987;-68
2023/03/13 14:02:53;;;;;;;;;;;17.00;99.90;;;;;;5048578;28;20177;-68
2023/03/13 14:05:21;;;;;;;;;;;17.20;99.90;;;;;;5044345;28;19998;-68
2023/03/13 14:07:52;;;;;;;;;;;17.30;99.90;;;;;;5042412;28;19921;-68
2023/03/13 14:10:25;;;;;;;;;;;17.40;99.90;;;;;;5063949;28;19988;-67
2023/03/13 14:12:52;;;;;;;;;;;17.50;99.90;;;;;;5057393;28;19989;-69
2023/03/13 14:15:19;;;;;;;;;;;17.50;99.90;;;;;;5056698;28;19991;-67
2023/03/13 14:17:47;;;;;;;;;;;17.50;99.90;;;;;;5065092;28;20208;-68
2023/03/13 14:20:19;;;;;;;;;;;17.50;99.90;;;;;;5055589;28;19992;-68
2023/03/13 14:22:46;;;;;;;;;;;17.40;99.90;;;;;;5066270;28;19984;-68
2023/03/13 14:25:14;;;;;;;;;;;17.40;99.90;;;;;;5057790;28;20283;-68
2023/03/13 14:27:44;;;;;;;;;;;17.50;99.90;;;;;;5050916;28;19989;-69
2023/03/13 14:30:12;;;;;;;;;;;17.60;99.90;;;;;;5045836;28;20343;-69
2023/03/13 14:32:38;;;;;;;;;;;17.60;99.90;;;;;;5053994;28;19943;-69
2023/03/13 14:35:06;;;;;;;;;;;17.70;99.90;;;;;;5055580;28;19928;-70